Time;durP1;ratioP1;P1;durP2;ratioP2;P2;SDS_P1;SDS_P2;PMS_P1;PMS_P2;Temp;Humidity;BMP_temperature;BMP_pressure;BME280_temperature;BME280_humidity;BME280_pressure;Samples;Min_cycle;Max_cycle;Signal;HPM_P1;HPM_P2
2021/05/25 00:00:01;;;;;;;2.50;2.30;;;7.70;99.90;;;;;;5083994;28;20190;-75
2021/05/25 00:02:29;;;;;;;2.40;2.20;;;7.70;99.90;;;;;;5072159;28;20689;-75
2021/05/25 00:04:59;;;;;;;3.00;2.00;;;7.70;99.90;;;;;;5087569;28;20196;-76
2021/05/25 00:07:26;;;;;;;2.23;2.00;;;7.80;99.90;;;;;;5089008;28;20230;-75
2021/05/25 00:09:54;;;;;;;3.90;2.20;;;7.80;99.90;;;;;;5086722;28;20246;-76
2021/05/25 00:12:22;;;;;;;2.43;2.20;;;7.80;99.90;;;;;;5095532;28;20183;-75
2021/05/25 00:14:50;;;;;;;2.30;2.20;;;7.70;99.90;;;;;;5089662;28;20210;-76
2021/05/25 00:17:18;;;;;;;2.07;1.90;;;7.70;99.90;;;;;;5094220;28;20677;-75
2021/05/25 00:19:46;;;;;;;2.00;1.90;;;7.70;99.90;;;;;;5093924;28;20189;-76
2021/05/25 00:22:15;;;;;;;2.27;2.07;;;7.70;99.90;;;;;;5087195;28;20187;-75
2021/05/25 00:24:53;;;;;;;3.23;2.20;;;7.60;99.90;;;;;;5084296;28;20299;-75
2021/05/25 00:27:21;;;;;;;2.33;1.70;;;7.60;99.90;;;;;;5085208;28;20278;-76
2021/05/25 00:29:49;;;;;;;3.50;2.00;;;7.60;99.90;;;;;;5079215;28;20250;-75
2021/05/25 00:32:17;;;;;;;4.30;1.83;;;7.60;99.90;;;;;;5086715;28;20194;-75
2021/05/25 00:34:45;;;;;;;2.10;1.83;;;7.60;99.90;;;;;;5088027;28;20329;-75
2021/05/25 00:37:12;;;;;;;2.30;2.20;;;7.50;99.90;;;;;;5087768;28;20215;-75
2021/05/25 00:39:41;;;;;;;2.80;2.10;;;7.50;99.90;;;;;;5083818;28;20266;-76
2021/05/25 00:42:09;;;;;;;3.33;2.10;;;7.50;99.90;;;;;;5090234;28;20200;-75
2021/05/25 00:44:37;;;;;;;2.40;1.77;;;7.50;99.90;;;;;;5093835;28;20218;-75
2021/05/25 00:47:05;;;;;;;2.50;2.10;;;7.50;99.90;;;;;;5076766;28;20616;-75
2021/05/25 00:49:33;;;;;;;2.20;2.00;;;7.50;99.90;;;;;;5099628;28;20207;-76
2021/05/25 00:52:01;;;;;;;9.07;2.40;;;7.50;99.90;;;;;;5083951;28;20230;-75
2021/05/25 00:54:29;;;;;;;2.37;2.00;;;7.50;99.90;;;;;;5088912;28;20256;-75
2021/05/25 00:56:59;;;;;;;2.17;2.07;;;7.50;99.90;;;;;;5080221;28;20264;-76
2021/05/25 00:59:28;;;;;;;2.43;2.03;;;7.50;99.90;;;;;;5083410;28;20215;-75
2021/05/25 01:01:56;;;;;;;3.60;2.10;;;7.60;99.90;;;;;;5085752;28;20192;-75
2021/05/25 01:04:23;;;;;;;2.53;2.27;;;7.60;99.90;;;;;;5094313;28;20649;-75
2021/05/25 01:06:51;;;;;;;1.87;1.80;;;7.70;99.90;;;;;;5083312;28;20271;-76
2021/05/25 01:09:19;;;;;;;4.40;2.20;;;7.70;99.90;;;;;;5086031;28;20226;-76
2021/05/25 01:11:47;;;;;;;2.70;2.30;;;7.70;99.90;;;;;;5081009;28;20199;-75
2021/05/25 01:14:16;;;;;;;3.77;2.50;;;7.70;99.90;;;;;;5091526;28;20840;-76
2021/05/25 01:16:44;;;;;;;2.97;2.07;;;7.70;99.90;;;;;;5086968;28;20521;-76
2021/05/25 01:19:12;;;;;;;2.17;2.07;;;7.80;99.90;;;;;;5094794;28;20278;-76
2021/05/25 01:21:41;;;;;;;3.67;2.00;;;7.80;99.90;;;;;;5089898;28;20230;-75
2021/05/25 01:24:09;;;;;;;2.93;2.10;;;7.80;99.90;;;;;;5090887;28;20262;-75
2021/05/25 01:26:37;;;;;;;3.23;2.10;;;7.80;99.90;;;;;;5076435;28;20598;-75
2021/05/25 01:29:05;;;;;;;2.40;2.20;;;7.90;99.90;;;;;;5079662;28;20245;-75
2021/05/25 01:31:33;;;;;;;2.00;1.90;;;7.90;99.90;;;;;;5093462;28;20191;-76
2021/05/25 01:34:01;;;;;;;2.20;2.00;;;7.90;99.90;;;;;;5087433;28;21669;-76
2021/05/25 01:36:29;;;;;;;4.17;2.30;;;7.90;99.90;;;;;;5082900;28;20206;-76
2021/05/25 01:38:58;;;;;;;2.07;1.97;;;7.90;99.90;;;;;;5084183;28;20227;-76
2021/05/25 01:41:26;;;;;;;3.73;2.20;;;7.90;99.90;;;;;;5083647;28;20249;-75
2021/05/25 01:43:54;;;;;;;3.90;2.13;;;7.90;99.90;;;;;;5079395;28;20245;-75
2021/05/25 01:46:21;;;;;;;2.10;2.00;;;7.90;99.90;;;;;;5088464;28;20651;-76
2021/05/25 01:48:50;;;;;;;4.10;2.33;;;7.90;99.90;;;;;;5084824;28;20255;-75
2021/05/25 01:51:19;;;;;;;3.00;2.70;;;7.90;99.90;;;;;;5085875;28;20194;-75
2021/05/25 01:53:47;;;;;;;5.90;2.60;;;7.90;99.90;;;;;;5088976;28;20229;-75
2021/05/25 01:56:16;;;;;;;7.20;2.40;;;7.80;99.90;;;;;;5082591;28;20188;-75
2021/05/25 01:58:45;;;;;;;3.53;2.50;;;7.80;99.90;;;;;;5076024;28;20221;-76
2021/05/25 02:01:13;;;;;;;3.07;2.73;;;7.90;99.90;;;;;;5090504;28;20241;-75
2021/05/25 02:03:42;;;;;;;4.53;2.90;;;7.90;99.90;;;;;;5081095;28;20199;-75
2021/05/25 02:06:11;;;;;;;4.07;2.90;;;7.90;99.90;;;;;;5077915;28;20204;-75
2021/05/25 02:08:40;;;;;;;4.77;3.27;;;7.90;99.90;;;;;;5087581;28;20239;-75
2021/05/25 02:11:08;;;;;;;6.80;3.57;;;7.90;99.90;;;;;;5087893;28;20512;-76
2021/05/25 02:13:39;;;;;;;3.80;3.20;;;7.90;99.90;;;;;;5089014;28;20342;-75
2021/05/25 02:16:09;;;;;;;3.63;3.20;;;8.00;99.90;;;;;;5092085;28;20285;-76
2021/05/25 02:18:42;;;;;;;6.07;3.70;;;8.00;99.90;;;;;;5053026;28;20188;-77
2021/05/25 02:21:12;;;;;;;4.27;3.67;;;8.00;99.90;;;;;;5097100;28;20191;-75
2021/05/25 02:23:40;;;;;;;6.37;3.80;;;8.00;99.90;;;;;;5089721;28;20219;-75
2021/05/25 02:26:08;;;;;;;7.27;3.73;;;8.10;99.90;;;;;;5075041;28;20191;-74
2021/05/25 02:28:40;;;;;;;8.63;3.80;;;8.10;99.90;;;;;;5088385;28;20296;-75
2021/05/25 02:31:09;;;;;;;9.47;3.93;;;8.00;99.90;;;;;;5083566;28;20916;-73
2021/05/25 02:33:37;;;;;;;5.43;3.70;;;8.10;99.90;;;;;;5092607;28;20196;-75
2021/05/25 02:36:06;;;;;;;6.70;3.53;;;8.10;99.90;;;;;;5093184;28;20653;-75
2021/05/25 02:38:34;;;;;;;4.17;3.67;;;8.10;99.90;;;;;;5087616;28;20188;-75
2021/05/25 02:41:02;;;;;;;5.07;3.67;;;8.10;99.90;;;;;;5080751;28;20192;-74
2021/05/25 02:43:31;;;;;;;9.67;3.87;;;8.10;99.90;;;;;;5089636;28;20766;-76
2021/05/25 02:46:00;;;;;;;4.77;3.47;;;8.00;99.90;;;;;;5086143;28;20192;-76
2021/05/25 02:48:28;;;;;;;5.53;4.00;;;8.00;99.90;;;;;;5088734;28;20203;-73
2021/05/25 02:50:58;;;;;;;4.83;3.70;;;8.10;99.90;;;;;;5088418;28;20208;-73
2021/05/25 02:53:25;;;;;;;6.43;4.20;;;8.10;99.90;;;;;;5082224;28;20254;-73
2021/05/25 02:55:53;;;;;;;7.07;3.93;;;8.10;99.90;;;;;;5086548;28;20191;-72
2021/05/25 02:58:21;;;;;;;13.23;4.90;;;8.10;99.90;;;;;;5085455;28;20200;-74
2021/05/25 03:00:49;;;;;;;5.53;5.03;;;8.10;99.90;;;;;;5092987;28;20587;-75
2021/05/25 03:03:18;;;;;;;8.13;5.10;;;8.10;99.90;;;;;;5091682;28;20196;-74
2021/05/25 03:05:47;;;;;;;9.37;5.43;;;8.10;99.90;;;;;;5082962;28;20198;-75
2021/05/25 03:08:17;;;;;;;7.50;5.10;;;8.10;99.90;;;;;;5083961;28;20191;-74
2021/05/25 03:10:48;;;;;;;7.67;5.67;;;8.10;99.90;;;;;;5090996;28;20286;-75
2021/05/25 03:13:17;;;;;;;7.27;5.83;;;8.10;99.90;;;;;;5089215;28;20184;-75
2021/05/25 03:15:47;;;;;;;6.63;5.97;;;8.10;99.90;;;;;;5086807;28;20199;-75
2021/05/25 03:18:15;;;;;;;7.53;5.73;;;8.10;99.90;;;;;;5079057;28;20196;-76
2021/05/25 03:20:47;;;;;;;7.20;6.07;;;8.10;99.90;;;;;;5089928;28;20187;-74
2021/05/25 03:23:16;;;;;;;7.97;6.30;;;8.20;99.90;;;;;;5092517;28;20597;-76
2021/05/25 03:25:46;;;;;;;9.27;6.87;;;8.10;99.90;;;;;;5088672;28;20196;-74
2021/05/25 03:28:15;;;;;;;7.30;6.20;;;8.10;99.90;;;;;;5091364;28;20187;-75
2021/05/25 03:30:43;;;;;;;8.83;6.70;;;8.10;99.90;;;;;;5082002;28;20257;-75
2021/05/25 03:33:11;;;;;;;7.37;6.67;;;8.10;99.90;;;;;;5095322;28;20194;-72
2021/05/25 03:35:39;;;;;;;9.00;7.27;;;8.20;99.90;;;;;;5087661;28;20195;-76
2021/05/25 03:38:08;;;;;;;14.80;7.37;;;8.10;99.90;;;;;;5094820;28;20218;-75
2021/05/25 03:40:36;;;;;;;11.40;8.03;;;8.10;99.90;;;;;;5069743;28;20652;-74
2021/05/25 03:43:06;;;;;;;11.97;8.17;;;8.20;99.90;;;;;;5073770;28;20563;-75
2021/05/25 03:45:34;;;;;;;9.93;8.00;;;8.20;99.90;;;;;;5089273;28;20206;-75
2021/05/25 03:48:01;;;;;;;9.27;7.30;;;8.20;99.90;;;;;;5085610;28;20710;-75
2021/05/25 03:50:30;;;;;;;10.60;7.40;;;8.30;99.90;;;;;;5078872;28;20238;-75
2021/05/25 03:53:00;;;;;;;6.80;6.07;;;8.30;99.90;;;;;;5088719;28;20681;-75
2021/05/25 03:55:39;;;;;;;8.47;6.37;;;8.20;99.90;;;;;;5080022;28;20571;-76
2021/05/25 04:00:54;;;;;;;7.53;6.83;;;8.20;99.90;;;;;;5082551;28;20195;-76
2021/05/25 04:03:22;;;;;;;7.60;6.80;;;8.20;99.90;;;;;;5087270;28;20550;-75
2021/05/25 04:05:51;;;;;;;9.37;7.43;;;8.30;99.90;;;;;;5089977;28;20198;-76
2021/05/25 04:08:19;;;;;;;12.97;8.37;;;8.30;99.90;;;;;;5094243;28;20195;-76
2021/05/25 04:10:48;;;;;;;15.00;11.33;;;8.30;99.90;;;;;;5080129;28;20243;-76
2021/05/25 04:13:17;;;;;;;15.07;12.03;;;8.40;99.90;;;;;;5093714;28;20686;-76
2021/05/25 04:15:47;;;;;;;16.87;12.03;;;8.50;99.90;;;;;;5085852;28;20225;-76
2021/05/25 04:18:15;;;;;;;17.37;12.97;;;8.50;99.90;;;;;;5091029;28;20191;-75
2021/05/25 04:20:43;;;;;;;17.27;13.07;;;8.50;99.90;;;;;;5089585;28;20191;-76
2021/05/25 04:23:11;;;;;;;17.70;12.83;;;8.50;99.90;;;;;;5084419;28;20320;-76
2021/05/25 04:25:39;;;;;;;16.70;12.60;;;8.50;99.90;;;;;;5088565;28;20284;-76
2021/05/25 04:28:08;;;;;;;18.77;13.57;;;8.60;99.90;;;;;;5088396;28;20286;-76
2021/05/25 04:30:36;;;;;;;23.23;13.63;;;8.60;99.90;;;;;;5088183;28;20686;-77
2021/05/25 04:33:05;;;;;;;19.60;12.63;;;8.60;99.90;;;;;;5085542;28;20226;-77
2021/05/25 04:35:33;;;;;;;19.47;13.07;;;8.60;99.90;;;;;;5089615;28;20670;-77
2021/05/25 04:38:01;;;;;;;16.40;12.90;;;8.60;99.90;;;;;;5087472;28;20198;-76
2021/05/25 04:40:29;;;;;;;16.33;12.43;;;8.60;99.90;;;;;;5088027;28;20282;-76
2021/05/25 04:42:57;;;;;;;14.63;12.03;;;8.70;99.90;;;;;;5087141;28;20187;-76
2021/05/25 04:45:26;;;;;;;13.90;11.13;;;8.70;99.90;;;;;;5085544;28;21009;-77
2021/05/25 04:47:55;;;;;;;15.97;11.83;;;8.80;99.90;;;;;;5084881;28;20209;-77
2021/05/25 04:50:23;;;;;;;19.60;12.00;;;8.80;99.90;;;;;;5092073;28;20243;-76
2021/05/25 04:52:51;;;;;;;16.60;12.27;;;8.80;99.90;;;;;;5086337;28;20602;-77
2021/05/25 04:55:20;;;;;;;15.93;11.77;;;8.80;99.90;;;;;;5091923;28;20762;-76
2021/05/25 04:57:49;;;;;;;16.57;12.60;;;8.80;99.90;;;;;;5092228;28;20242;-77
2021/05/25 05:00:19;;;;;;;15.50;12.23;;;8.90;99.90;;;;;;5092347;28;20191;-78
2021/05/25 05:02:49;;;;;;;16.47;12.63;;;8.90;99.90;;;;;;5091618;28;20236;-78
2021/05/25 05:05:17;;;;;;;16.00;11.63;;;8.90;99.90;;;;;;5093815;28;20199;-79
2021/05/25 05:07:45;;;;;;;20.43;11.77;;;9.00;99.90;;;;;;5091244;28;20724;-78
2021/05/25 05:10:13;;;;;;;14.07;11.63;;;9.00;99.90;;;;;;5095294;28;20241;-78
2021/05/25 05:12:41;;;;;;;17.83;12.00;;;9.10;99.90;;;;;;5098003;28;20268;-77
2021/05/25 05:15:11;;;;;;;15.97;11.47;;;9.10;99.90;;;;;;5088480;28;20200;-78
2021/05/25 05:17:39;;;;;;;14.03;10.97;;;9.20;99.90;;;;;;5089821;28;20188;-77
2021/05/25 05:20:11;;;;;;;15.20;11.20;;;9.20;99.90;;;;;;5091482;28;20282;-78
2021/05/25 05:22:39;;;;;;;15.57;10.63;;;9.20;99.90;;;;;;5079964;28;20263;-78
2021/05/25 05:25:08;;;;;;;13.67;10.30;;;9.20;99.90;;;;;;5092380;28;20194;-78
2021/05/25 05:27:36;;;;;;;13.23;9.33;;;9.20;99.90;;;;;;5090975;28;20191;-77
2021/05/25 05:30:05;;;;;;;13.33;9.00;;;9.20;99.90;;;;;;5082231;28;20241;-77
2021/05/25 05:32:33;;;;;;;9.00;7.47;;;9.10;99.90;;;;;;5090857;28;20241;-77
2021/05/25 05:35:02;;;;;;;9.90;7.47;;;9.10;99.90;;;;;;5087301;28;20392;-77
2021/05/25 05:37:31;;;;;;;9.23;7.07;;;9.10;99.90;;;;;;5080737;28;20191;-77
2021/05/25 05:40:00;;;;;;;8.60;6.80;;;9.00;99.90;;;;;;5094867;28;20628;-76
2021/05/25 05:42:27;;;;;;;9.97;7.10;;;9.00;99.90;;;;;;5088449;28;20240;-76
2021/05/25 05:44:55;;;;;;;6.57;5.80;;;9.00;99.90;;;;;;5093914;28;20195;-77
2021/05/25 05:47:23;;;;;;;7.40;5.47;;;9.00;99.90;;;;;;5081454;28;20678;-76
2021/05/25 05:49:51;;;;;;;10.17;5.70;;;9.00;99.90;;;;;;5086360;28;20195;-77
2021/05/25 05:52:19;;;;;;;6.03;5.53;;;9.00;99.90;;;;;;5074217;28;20248;-76
2021/05/25 05:54:49;;;;;;;9.17;4.80;;;9.00;99.90;;;;;;5075963;28;20195;-75
2021/05/25 05:57:18;;;;;;;6.20;5.37;;;9.10;99.90;;;;;;5074432;28;20192;-75
2021/05/25 05:59:46;;;;;;;5.97;4.70;;;9.10;99.90;;;;;;5073000;28;20655;-76
2021/05/25 06:02:14;;;;;;;5.47;4.80;;;9.20;99.90;;;;;;5083413;28;20183;-77
2021/05/25 06:04:42;;;;;;;5.50;5.00;;;9.30;99.90;;;;;;5086333;28;20201;-75
2021/05/25 06:07:10;;;;;;;8.70;5.27;;;9.40;99.90;;;;;;5081723;28;20210;-76
2021/05/25 06:09:38;;;;;;;5.10;4.60;;;9.40;99.90;;;;;;5113668;28;20566;-77
2021/05/25 06:12:08;;;;;;;8.57;5.47;;;9.40;99.90;;;;;;5087976;28;20209;-77
2021/05/25 06:14:35;;;;;;;8.40;5.50;;;9.30;99.90;;;;;;5110712;28;20188;-77
2021/05/25 06:17:04;;;;;;;12.27;7.33;;;9.20;99.90;;;;;;5094817;28;20180;-77
2021/05/25 06:19:31;;;;;;;10.30;6.70;;;9.20;99.90;;;;;;5083749;28;20191;-77
2021/05/25 06:21:59;;;;;;;9.33;6.93;;;9.20;99.90;;;;;;5093080;28;20682;-76
2021/05/25 06:24:27;;;;;;;11.27;6.77;;;9.40;99.90;;;;;;5085535;28;20222;-76
2021/05/25 06:26:55;;;;;;;10.13;6.23;;;9.50;99.90;;;;;;5088130;28;20201;-76
2021/05/25 06:29:24;;;;;;;11.93;5.13;;;9.50;99.90;;;;;;5092760;28;20196;-76
2021/05/25 06:31:58;;;;;;;6.30;5.20;;;9.60;99.90;;;;;;5100998;28;20211;-77
2021/05/25 06:34:27;;;;;;;5.83;3.77;;;9.60;99.90;;;;;;5091294;28;20209;-76
2021/05/25 06:36:54;;;;;;;5.80;4.00;;;9.70;99.90;;;;;;5097374;28;20246;-76
2021/05/25 06:39:23;;;;;;;5.70;3.53;;;9.80;99.90;;;;;;5101419;28;20188;-77
2021/05/25 06:41:51;;;;;;;5.13;3.67;;;10.00;99.90;;;;;;5092817;28;20187;-76
2021/05/25 06:44:18;;;;;;;4.10;3.67;;;10.20;99.90;;;;;;5092960;28;20274;-74
2021/05/25 06:46:47;;;;;;;7.50;3.33;;;10.40;99.90;;;;;;5094093;28;20230;-76
2021/05/25 06:49:15;;;;;;;6.67;3.90;;;10.30;99.90;;;;;;5096785;28;20273;-77
2021/05/25 06:51:46;;;;;;;6.30;4.10;;;10.20;99.90;;;;;;5097699;28;20204;-76
2021/05/25 06:54:13;;;;;;;10.00;4.60;;;10.10;99.90;;;;;;5085846;28;20191;-76
2021/05/25 06:56:41;;;;;;;4.63;4.13;;;10.10;99.90;;;;;;5089824;28;20236;-78
2021/05/25 06:59:12;;;;;;;8.90;4.70;;;10.00;99.90;;;;;;5097585;28;20213;-78
2021/05/25 07:01:40;;;;;;;9.13;4.33;;;10.10;99.90;;;;;;5098123;28;20188;-76
2021/05/25 07:04:09;;;;;;;8.93;4.83;;;10.10;99.90;;;;;;5096438;28;20249;-75
2021/05/25 07:06:36;;;;;;;9.10;4.80;;;10.10;99.90;;;;;;5090153;28;20245;-76
2021/05/25 07:09:05;;;;;;;11.60;4.97;;;10.10;99.90;;;;;;5088663;28;20188;-77
2021/05/25 07:11:33;;;;;;;7.50;4.43;;;10.20;99.90;;;;;;5088575;28;20779;-77
2021/05/25 07:14:01;;;;;;;7.27;5.07;;;10.20;99.90;;;;;;5077375;28;20247;-76
2021/05/25 07:16:30;;;;;;;4.97;4.47;;;10.20;99.90;;;;;;5089324;28;20191;-77
2021/05/25 07:18:58;;;;;;;10.33;5.27;;;10.20;99.90;;;;;;5078226;28;20196;-76
2021/05/25 07:21:27;;;;;;;8.20;4.53;;;10.20;99.90;;;;;;5080807;28;20734;-76
2021/05/25 07:23:55;;;;;;;5.90;4.20;;;10.30;99.90;;;;;;5078011;28;20740;-75
2021/05/25 07:26:24;;;;;;;6.53;4.50;;;10.40;99.90;;;;;;5086516;28;20237;-76
2021/05/25 07:28:52;;;;;;;4.90;4.47;;;10.60;99.90;;;;;;5090702;28;20321;-76
2021/05/25 07:31:20;;;;;;;7.57;4.63;;;10.70;99.90;;;;;;5089544;28;20215;-72
2021/05/25 07:33:48;;;;;;;9.50;3.77;;;10.90;99.90;;;;;;5078936;28;20215;-75
2021/05/25 07:36:16;;;;;;;4.07;3.70;;;10.90;99.90;;;;;;5086251;28;20240;-76
2021/05/25 07:38:46;;;;;;;5.93;3.60;;;11.00;99.90;;;;;;5074399;28;20195;-76
2021/05/25 07:41:14;;;;;;;6.70;3.47;;;11.10;99.90;;;;;;5070813;28;20196;-75
2021/05/25 07:43:42;;;;;;;6.27;3.40;;;11.30;99.90;;;;;;5082247;28;20646;-74
2021/05/25 07:46:10;;;;;;;4.73;3.50;;;11.40;99.90;;;;;;5075817;28;20188;-75
2021/05/25 07:48:38;;;;;;;7.37;3.60;;;11.40;99.90;;;;;;5073980;28;20200;-75
2021/05/25 07:51:06;;;;;;;10.30;3.93;;;11.60;99.90;;;;;;5086287;28;20307;-76
2021/05/25 07:53:34;;;;;;;6.00;3.30;;;11.80;99.90;;;;;;5098926;28;20192;-75
2021/05/25 07:56:03;;;;;;;6.77;3.23;;;11.90;99.90;;;;;;5086764;28;20194;-75
2021/05/25 07:58:31;;;;;;;3.77;2.90;;;11.80;99.90;;;;;;5058719;28;20220;-74
2021/05/25 08:00:59;;;;;;;6.53;3.23;;;11.80;99.90;;;;;;5087106;28;20225;-74
2021/05/25 08:03:27;;;;;;;3.50;2.70;;;12.20;99.90;;;;;;5088685;28;20245;-74
2021/05/25 08:05:57;;;;;;;4.73;3.20;;;12.40;99.90;;;;;;5084212;28;20192;-75
2021/05/25 08:08:26;;;;;;;4.00;2.90;;;12.70;99.90;;;;;;5071986;28;20249;-75
2021/05/25 08:10:54;;;;;;;6.37;2.70;;;13.20;99.90;;;;;;5085678;28;20232;-76
2021/05/25 08:13:23;;;;;;;3.73;2.60;;;13.50;99.90;;;;;;5077060;28;20268;-73
2021/05/25 08:15:51;;;;;;;5.53;2.47;;;13.60;99.90;;;;;;5082566;28;20227;-75
2021/05/25 08:18:34;;;;;;;5.97;2.43;;;13.90;99.90;;;;;;5082966;28;20199;-76
2021/05/25 08:21:03;;;;;;;5.10;2.20;;;14.00;99.90;;;;;;5077016;28;20261;-74
2021/05/25 08:23:31;;;;;;;4.80;2.27;;;13.60;99.90;;;;;;5073150;28;20258;-73
2021/05/25 08:26:03;;;;;;;4.87;2.63;;;13.60;99.90;;;;;;5086134;28;20195;-75
2021/05/25 08:28:32;;;;;;;4.10;2.23;;;14.00;99.90;;;;;;5069122;28;20267;-74
2021/05/25 08:31:00;;;;;;;2.43;2.00;;;14.30;99.90;;;;;;5084591;28;20247;-76
2021/05/25 08:33:28;;;;;;;6.67;2.10;;;14.60;99.90;;;;;;5080725;28;20191;-75
2021/05/25 08:35:56;;;;;;;1.90;1.73;;;15.30;99.90;;;;;;5088589;28;20191;-75
2021/05/25 08:38:24;;;;;;;3.50;1.40;;;15.10;99.90;;;;;;5082475;28;20200;-74
2021/05/25 08:40:55;;;;;;;1.80;1.70;;;14.90;99.90;;;;;;5088107;28;20191;-74
2021/05/25 08:43:23;;;;;;;2.27;1.90;;;14.90;99.90;;;;;;5077218;28;20260;-74
2021/05/25 08:45:52;;;;;;;3.37;1.97;;;15.00;99.90;;;;;;5075821;28;20878;-75
2021/05/25 08:48:20;;;;;;;3.77;2.27;;;14.90;99.90;;;;;;5075720;28;20245;-75
2021/05/25 08:50:52;;;;;;;2.50;2.30;;;14.70;99.90;;;;;;5085841;28;20252;-75
2021/05/25 08:53:20;;;;;;;2.60;2.03;;;14.90;99.90;;;;;;5082128;28;20235;-75
2021/05/25 08:55:50;;;;;;;3.77;1.67;;;15.50;99.90;;;;;;5085575;28;20253;-75
2021/05/25 08:58:21;;;;;;;3.87;1.93;;;16.00;99.90;;;;;;5087873;28;20195;-76
2021/05/25 09:00:51;;;;;;;2.43;1.80;;;16.20;99.90;;;;;;5085632;28;20266;-76
2021/05/25 09:03:21;;;;;;;7.37;1.90;;;16.50;99.90;;;;;;5084047;28;20199;-75
2021/05/25 09:05:52;;;;;;;3.40;1.80;;;16.50;99.90;;;;;;5095929;28;20564;-75
2021/05/25 09:08:20;;;;;;;2.80;1.83;;;16.00;99.90;;;;;;5081514;28;20227;-75
2021/05/25 09:10:50;;;;;;;2.50;1.70;;;15.60;99.90;;;;;;5078537;28;20217;-74
2021/05/25 09:13:20;;;;;;;4.20;1.90;;;15.00;99.90;;;;;;5085153;28;20274;-75
2021/05/25 09:15:50;;;;;;;2.67;2.10;;;14.50;99.90;;;;;;5080502;28;20200;-75
2021/05/25 09:18:19;;;;;;;4.93;1.97;;;14.10;99.90;;;;;;5086987;28;20605;-74
2021/05/25 09:20:50;;;;;;;2.70;2.10;;;13.80;99.90;;;;;;5079881;28;20183;-72
2021/05/25 09:23:21;;;;;;;2.97;2.03;;;13.50;99.90;;;;;;5072494;28;20276;-74
2021/05/25 09:25:54;;;;;;;4.17;2.10;;;13.20;99.90;;;;;;5084173;28;20199;-74
2021/05/25 09:28:22;;;;;;;4.97;2.23;;;13.20;99.90;;;;;;5092318;28;20245;-75
2021/05/25 09:30:51;;;;;;;4.93;2.33;;;13.10;99.90;;;;;;5074584;28;20245;-75
2021/05/25 09:33:23;;;;;;;6.57;2.60;;;12.90;99.90;;;;;;5061537;28;20187;-75
2021/05/25 09:35:55;;;;;;;3.63;2.07;;;12.90;99.90;;;;;;5080667;28;20270;-76
2021/05/25 09:38:26;;;;;;;7.60;2.00;;;13.00;99.90;;;;;;5069025;28;20203;-75
2021/05/25 09:41:00;;;;;;;7.00;2.00;;;13.10;99.90;;;;;;5085668;28;20195;-75
2021/05/25 09:43:29;;;;;;;4.07;2.00;;;13.40;99.90;;;;;;5082054;28;20200;-74
2021/05/25 09:46:04;;;;;;;4.97;2.23;;;13.70;99.90;;;;;;5081788;28;20183;-75
2021/05/25 09:48:51;;;;;;;2.67;2.10;;;13.70;99.90;;;;;;5084037;28;20677;-73
2021/05/25 09:51:21;;;;;;;2.17;1.30;;;13.40;99.90;;;;;;5079974;28;20291;-73
2021/05/25 09:53:56;;;;;;;1.30;1.20;;;12.50;99.90;;;;;;5087812;28;20197;-73
2021/05/25 09:56:24;;;;;;;1.27;1.27;;;11.90;99.90;;;;;;5083934;28;20249;-74
2021/05/25 09:58:54;;;;;;;2.07;1.57;;;11.50;99.90;;;;;;5078293;28;20688;-76
2021/05/25 10:01:32;;;;;;;1.10;1.10;;;11.30;99.90;;;;;;5082673;28;20195;-75
2021/05/25 10:04:10;;;;;;;2.00;1.40;;;11.10;99.90;;;;;;5085705;28;20601;-76
2021/05/25 10:06:40;;;;;;;2.27;1.40;;;11.10;99.90;;;;;;5083236;28;20213;-76
2021/05/25 10:09:09;;;;;;;3.00;1.70;;;11.00;99.90;;;;;;5081952;28;20757;-75
2021/05/25 10:11:41;;;;;;;1.43;1.33;;;11.10;99.90;;;;;;5083655;28;20199;-76
2021/05/25 10:14:11;;;;;;;1.83;1.60;;;11.00;99.90;;;;;;5082798;28;20727;-76
2021/05/25 10:16:42;;;;;;;4.20;1.50;;;11.10;99.90;;;;;;5086355;28;20258;-76
2021/05/25 10:19:27;;;;;;;3.37;1.70;;;11.20;99.90;;;;;;5064890;28;20213;-76
2021/05/25 10:21:57;;;;;;;2.83;1.80;;;11.40;99.90;;;;;;5085072;28;20183;-75
2021/05/25 10:24:25;;;;;;;2.70;1.80;;;11.40;99.90;;;;;;5091936;28;20243;-74
2021/05/25 10:26:53;;;;;;;4.03;1.80;;;11.60;99.90;;;;;;5082671;28;20196;-76
2021/05/25 10:29:20;;;;;;;2.17;1.77;;;11.70;99.90;;;;;;5091879;28;20414;-75
2021/05/25 10:32:00;;;;;;;4.90;1.90;;;11.90;99.90;;;;;;5084610;28;20257;-76
2021/05/25 10:34:34;;;;;;;5.33;1.77;;;11.90;99.90;;;;;;5083071;28;20256;-75
2021/05/25 10:37:05;;;;;;;2.80;2.07;;;12.00;99.90;;;;;;5088737;28;20215;-76
2021/05/25 10:39:35;;;;;;;4.20;2.10;;;12.10;99.90;;;;;;5085745;28;20257;-76
2021/05/25 10:42:23;;;;;;;4.73;2.10;;;12.40;99.90;;;;;;5079875;28;20329;-75
2021/05/25 10:44:54;;;;;;;5.57;1.73;;;12.50;99.90;;;;;;5079816;28;20261;-76
2021/05/25 10:47:25;;;;;;;1.97;1.80;;;12.80;99.90;;;;;;5088922;28;20223;-76
2021/05/25 10:49:56;;;;;;;6.00;2.50;;;13.10;99.90;;;;;;5082027;28;20659;-76
2021/05/25 10:52:25;;;;;;;4.50;2.07;;;13.20;99.90;;;;;;5085637;28;20552;-76
2021/05/25 10:54:58;;;;;;;3.90;2.10;;;13.10;99.90;;;;;;5086786;28;20187;-75
2021/05/25 10:57:46;;;;;;;3.03;1.90;;;13.10;99.90;;;;;;5090642;28;20241;-75
2021/05/25 11:00:17;;;;;;;5.17;1.80;;;13.30;99.90;;;;;;5088454;28;20192;-75
2021/05/25 11:02:56;;;;;;;2.10;2.00;;;13.40;99.90;;;;;;5088392;28;20215;-75
2021/05/25 11:05:44;;;;;;;3.37;2.47;;;13.40;99.90;;;;;;5088784;28;20670;-75
2021/05/25 11:08:27;;;;;;;6.63;3.07;;;13.40;99.90;;;;;;5081337;28;20250;-75
2021/05/25 11:11:09;;;;;;;6.93;2.63;;;13.50;99.90;;;;;;5087959;28;20226;-74
2021/05/25 11:13:40;;;;;;;7.13;2.10;;;13.40;99.90;;;;;;5087116;28;20624;-73
2021/05/25 11:16:12;;;;;;;5.30;1.70;;;13.70;99.90;;;;;;5089321;28;20253;-75
2021/05/25 11:18:44;;;;;;;5.87;1.77;;;14.10;99.90;;;;;;5088435;28;20424;-74
2021/05/25 11:24:33;;;;;;;11.10;2.10;;;14.60;99.90;;;;;;5067351;28;20258;-73
2021/05/25 11:27:05;;;;;;;4.67;1.37;;;14.30;99.90;;;;;;5088662;28;20199;-73
2021/05/25 11:29:34;;;;;;;6.10;1.90;;;14.20;99.90;;;;;;5090659;28;20739;-72
2021/05/25 11:32:06;;;;;;;4.63;1.83;;;14.10;99.90;;;;;;5080710;28;20262;-72
2021/05/25 11:34:35;;;;;;;4.10;1.57;;;14.10;99.90;;;;;;5085825;28;20261;-73
2021/05/25 11:37:05;;;;;;;2.23;1.40;;;14.20;99.90;;;;;;5088800;28;20205;-73
2021/05/25 11:39:36;;;;;;;2.20;1.53;;;14.30;99.90;;;;;;5083127;28;20199;-73
2021/05/25 11:42:06;;;;;;;2.80;1.50;;;14.30;99.90;;;;;;5078665;28;20253;-72
2021/05/25 11:44:36;;;;;;;3.53;1.70;;;14.30;99.90;;;;;;5084384;28;20196;-75
2021/05/25 11:47:06;;;;;;;3.53;1.50;;;14.60;99.90;;;;;;5090780;28;20187;-73
2021/05/25 11:49:37;;;;;;;3.13;1.57;;;14.70;99.90;;;;;;5079356;28;20245;-74
2021/05/25 11:52:25;;;;;;;4.93;1.60;;;14.80;99.90;;;;;;5085979;28;20773;-74
2021/05/25 11:54:56;;;;;;;5.10;2.00;;;14.60;99.90;;;;;;5080838;28;20559;-73
2021/05/25 11:57:32;;;;;;;2.77;1.57;;;14.90;99.90;;;;;;5083994;28;20196;-72
2021/05/25 12:00:01;;;;;;;4.10;1.70;;;15.00;99.90;;;;;;5082525;28;20198;-74
2021/05/25 12:02:31;;;;;;;5.33;1.70;;;15.20;99.90;;;;;;5087341;28;20671;-72
2021/05/25 12:05:08;;;;;;;6.30;2.00;;;15.40;99.90;;;;;;5085667;28;20184;-73
2021/05/25 12:07:38;;;;;;;3.00;1.70;;;15.40;99.90;;;;;;5096533;28;20223;-74
2021/05/25 12:10:10;;;;;;;4.93;1.50;;;15.10;99.90;;;;;;5079060;28;20222;-73
2021/05/25 12:12:41;;;;;;;2.23;1.30;;;14.70;99.90;;;;;;5080200;28;20219;-73
2021/05/25 12:15:16;;;;;;;2.63;1.47;;;13.70;99.90;;;;;;5086067;28;20219;-73
2021/05/25 12:17:47;;;;;;;1.67;1.57;;;13.20;99.90;;;;;;5081233;28;20732;-73
2021/05/25 12:20:18;;;;;;;5.27;2.13;;;13.10;99.90;;;;;;5079205;28;20195;-73
2021/05/25 12:22:48;;;;;;;2.40;1.40;;;13.10;99.90;;;;;;5078317;28;20317;-76
2021/05/25 12:25:32;;;;;;;3.80;1.77;;;13.50;99.90;;;;;;5087884;28;20180;-74
2021/05/25 12:28:08;;;;;;;4.03;1.60;;;13.70;99.90;;;;;;5086060;28;20229;-74
2021/05/25 12:30:42;;;;;;;5.33;1.63;;;14.20;99.90;;;;;;5088459;28;20282;-73
2021/05/25 12:33:17;;;;;;;3.23;1.67;;;14.60;99.90;;;;;;5090546;28;20214;-72
2021/05/25 12:35:46;;;;;;;2.83;1.53;;;14.80;99.90;;;;;;5088515;28;20202;-74
2021/05/25 12:38:16;;;;;;;6.10;1.70;;;15.00;99.90;;;;;;5087664;28;20206;-73
2021/05/25 12:40:47;;;;;;;4.50;2.03;;;14.90;99.90;;;;;;5089502;28;20237;-75
2021/05/25 12:43:21;;;;;;;5.70;1.93;;;14.60;99.90;;;;;;5084673;28;20200;-74
2021/05/25 12:45:49;;;;;;;3.93;1.80;;;14.40;99.90;;;;;;5084598;28;20190;-74
2021/05/25 12:48:19;;;;;;;2.40;1.30;;;14.00;99.90;;;;;;5086103;28;20195;-73
2021/05/25 12:50:48;;;;;;;4.40;2.00;;;13.50;99.90;;;;;;5078263;28;20700;-72
2021/05/25 12:53:17;;;;;;;4.47;1.90;;;13.10;99.90;;;;;;5080465;28;20321;-73
2021/05/25 12:55:59;;;;;;;2.77;1.80;;;13.10;99.90;;;;;;5084916;28;20294;-73
2021/05/25 12:58:41;;;;;;;5.47;2.13;;;13.50;99.90;;;;;;5074421;28;20204;-73
2021/05/25 13:01:24;;;;;;;4.43;1.60;;;14.10;99.90;;;;;;5080173;28;20640;-74
2021/05/25 13:03:54;;;;;;;6.67;2.47;;;14.40;99.90;;;;;;5083724;28;20761;-74
2021/05/25 13:06:26;;;;;;;4.00;1.97;;;14.40;99.90;;;;;;5079806;28;20195;-72
2021/05/25 13:09:09;;;;;;;3.93;2.50;;;14.60;99.90;;;;;;5080388;28;20187;-73